Flight Track Log - Related Links

Times and Time Zones

All times are in EDT time to prevent confusion due to time zone crossing. See the ASQ4577 flight status page for this flight to view local times or setup timezone preferences in your user account.

Time Position Orientation Groundspeed Altitude Reporting Facility
EDT Latitude Longitude Course Direction KTS MPH feet Rate Location/Type
Fri 03:38:34 PM 39.9333 -104.6667 72° East 189 217 6,700  Level Denver TRACON
Fri 03:39:34 PM 39.9500 -104.6000 72° East 251 289 8,300 1,650 Climbing Denver TRACON
Fri 03:40:34 PM 39.9500 -104.4833 90° East 273 314 10,000 905 Climbing Denver TRACON
Fri 03:41:40 PM 39.9500 -104.3667 90° East 326 375 10,200 353 Climbing Denver TRACON
Fri 03:41:59 PM 39.9400 -104.3356 113° Southeast 323 372 10,500 1,481 Climbing Denver Center
Fri 03:43:01 PM 39.9144 -104.2147 105° East 344 396 12,200 1,659 Climbing Denver Center
Fri 03:44:00 PM 39.8806 -103.7444 72° East  Level FlightAware Approximate
Fri 03:44:02 PM 39.9033 -104.1094 98° East 347 399 13,900  Level Denver Center
Fri 03:45:04 PM 39.9500 -103.9706 66° East 342 394 15,800 1,548 Climbing Denver Center
Fri 03:46:06 PM 39.9950 -103.8442 65° Northeast 357 411 17,100 1,016 Climbing Denver Center
Fri 03:47:08 PM 40.0222 -103.7231 74° East 366 421 17,900 919 Climbing Denver Center
Fri 03:48:10 PM 40.0467 -103.5756 78° East 374 430 19,000 968 Climbing Denver Center
Fri 03:49:12 PM 40.0683 -103.4433 78° East 388 447 19,900 1,113 Climbing Denver Center
Fri 03:50:14 PM 40.0947 -103.2881 77° East 392 451 21,300 1,306 Climbing Denver Center
Fri 03:51:16 PM 40.1150 -103.1556 79° East 390 449 22,600 1,306 Climbing Denver Center
Fri 03:52:18 PM 40.1372 -103.0247 77° East 387 445 24,000 1,415 Climbing Denver Center
Fri 03:53:19 PM 40.1608 -102.8758 78° East 375 432 25,500 1,366 Climbing Denver Center
Fri 03:54:21 PM 40.1803 -102.7497 79° East 371 427 26,800 1,306 Climbing Denver Center
Fri 03:55:23 PM 40.2036 -102.6047 78° East 366 421 28,200 1,210 Climbing Denver Center
Fri 03:56:25 PM 40.2219 -102.4833 79° East 358 412 29,300 1,113 Climbing Denver Center
Fri 03:57:27 PM 40.2439 -102.3411 79° East 356 410 30,500 1,065 Climbing Denver Center
Fri 03:58:29 PM 40.2633 -102.2197 78° East 356 410 31,500 1,008 Climbing Denver Center
Fri 03:59:32 PM 40.2847 -102.0767 79° East 358 412 32,600 968 Climbing Denver Center
Fri 04:00:33 PM 40.3031 -101.9533 79° East 360 414 33,500 927 Climbing Denver Center
Fri 04:01:35 PM 40.3261 -101.8119 78° East 358 412 34,500 677 Climbing Denver Center
Fri 04:02:37 PM 40.3439 -101.6894 79° East 358 412 34,900 242 Climbing Denver Center
Fri 04:03:39 PM 40.3656 -101.5403 79° East 371 427 35,000 48 Climbing Denver Center
Fri 04:04:41 PM 40.3856 -101.4069 79° East 385 443 35,000  Level Denver Center
Fri 04:05:43 PM 40.4081 -101.2442 80° East 402 463 35,000  Level Denver Center
Fri 04:06:45 PM 40.4286 -101.0989 79° East 421 484 35,000  Level Denver Center
Fri 04:07:47 PM 40.4531 -100.9275 79° East 430 495 35,000  Level Denver Center
Fri 04:08:49 PM 40.4767 -100.7786 78° East 436 502 35,000  Level Denver Center
Fri 04:09:51 PM 40.5050 -100.6050 78° East 439 505 35,000  Level Denver Center
Fri 04:10:53 PM 40.5283 -100.4550 78° East 442 509 35,000  Level Denver Center
Fri 04:11:55 PM 40.5556 -100.2797 78° East 442 509 35,000  Level Denver Center
Fri 04:12:57 PM 40.5792 -100.1297 78° East 441 507 35,000  Level Denver Center
Fri 04:13:59 PM 40.6058 -99.9533 79° East 442 509 35,000  Level Denver Center
Fri 04:15:00 PM 40.6269 -99.8161 78° East 441 507 35,000  Level Denver Center
Fri 04:16:02 PM 40.6556 -99.6264 79° East 441 507 35,000  Level Denver Center
Fri 04:17:04 PM 40.6789 -99.4678 79° East 441 507 35,000  Level Denver Center
Fri 04:18:06 PM 40.7025 -99.3072 79° East 446 513 35,000  Level Denver Center
Fri 04:19:08 PM 40.7244 -99.1492 80° East 443 510 35,000  Level Denver Center
Fri 04:19:23 PM 40.7294 -99.1186 78° East 444 511 35,000  Level Minneapolis Center
Fri 04:20:25 PM 40.7519 -98.9608 79° East 445 512 35,000  Level Minneapolis Center
Fri 04:21:27 PM 40.7792 -98.7683 79° East 446 513 35,000  Level Minneapolis Center
Fri 04:22:42 PM 40.8067 -98.5742 79° East 448 516 35,000  Level Minneapolis Center
Fri 04:23:44 PM 40.8294 -98.4167 79° East 448 516 35,000  Level Minneapolis Center
Fri 04:24:46 PM 40.8511 -98.2567 80° East 447 514 35,000  Level Minneapolis Center
Fri 04:25:48 PM 40.8775 -98.0608 80° East 452 520 35,000  Level Minneapolis Center
Fri 04:26:50 PM 40.9000 -97.8975 80° East 453 521 35,000  Level Minneapolis Center
Fri 04:27:52 PM 40.9203 -97.7342 81° East 452 520 35,000  Level Minneapolis Center
Fri 04:28:54 PM 40.9422 -97.5694 80° East 456 525 35,000  Level Minneapolis Center
Fri 04:29:56 PM 40.9633 -97.4050 80° East 455 524 35,000  Level Minneapolis Center
Fri 04:30:58 PM 40.9856 -97.2339 80° East 456 525 35,000  Level Minneapolis Center
Fri 04:32:00 PM 41.0064 -97.0681 80° East 458 527 35,000  Level Minneapolis Center
Fri 04:33:02 PM 41.0275 -96.9019 80° East 459 528 35,000  Level Minneapolis Center
Fri 04:34:05 PM 41.0528 -96.7011 80° East 462 532 35,000  Level Minneapolis Center
Fri 04:35:07 PM 41.0733 -96.5328 81° East 464 534 35,000  Level Minneapolis Center
Fri 04:36:09 PM 41.0939 -96.3639 81° East 466 536 35,000  Level Minneapolis Center
Fri 04:37:11 PM 41.1136 -96.1969 81° East 468 539 35,000  Level Minneapolis Center
Fri 04:38:13 PM 41.1336 -96.0250 81° East 472 543 35,000  Level Minneapolis Center
Fri 04:39:15 PM 41.1567 -95.8192 81° East 471 542 35,000  Level Minneapolis Center
Fri 04:40:17 PM 41.1792 -95.6483 80° East 470 541 35,000  Level Minneapolis Center
Fri 04:41:19 PM 41.2025 -95.4839 79° East 473 544 35,000  Level Minneapolis Center
Fri 04:42:33 PM 41.2328 -95.2794 79° East 474 545 35,000  Level Minneapolis Center
Fri 04:43:36 PM 41.2611 -95.0725 80° East 475 547 35,000  Level Minneapolis Center
Fri 04:44:38 PM 41.2842 -94.9008 80° East 474 545 35,000  Level Minneapolis Center
Fri 04:45:40 PM 41.3067 -94.7286 80° East 474 545 35,000  Level Minneapolis Center
Fri 04:46:54 PM 41.3303 -94.5556 80° East 476 548 35,000  Level Minneapolis Center
Fri 04:47:56 PM 41.3581 -94.3469 80° East 477 549 35,000  Level Minneapolis Center
Fri 04:48:58 PM 41.3822 -94.1658 80° East 479 551 35,000  Level Minneapolis Center
Fri 04:50:00 PM 41.4050 -93.9919 80° East 480 552 35,000  Level Minneapolis Center
Fri 04:51:02 PM 41.4311 -93.7833 80° East 479 551 35,000  Level Minneapolis Center
Fri 04:52:04 PM 41.4542 -93.6089 80° East 480 552 35,000  Level Minneapolis Center
Fri 04:53:06 PM 41.4783 -93.4314 80° East 485 558 35,000  Level Minneapolis Center
Fri 04:54:08 PM 41.4992 -93.2542 81° East 487 560 35,000  Level Minneapolis Center
Fri 04:55:11 PM 41.5203 -93.0789 81° East 483 556 35,000  Level Minneapolis Center
Fri 04:56:13 PM 41.5417 -92.9022 81° East 483 556 35,000  Level Minneapolis Center
Fri 04:57:15 PM 41.5672 -92.6886 81° East 486 559 35,000  Level Minneapolis Center
Fri 04:58:17 PM 41.5881 -92.5106 81° East 487 560 35,000  Level Minneapolis Center
Fri 04:58:38 PM 41.5942 -92.4603 81° East 488 562 35,000  Level Chicago Center
Fri 04:59:41 PM 41.6150 -92.2814 81° East 491 565 35,000  Level Chicago Center
Fri 05:00:43 PM 41.6386 -92.0692 81° East 488 562 35,000  Level Chicago Center
Fri 05:01:45 PM 41.6575 -91.8908 82° East 490 564 35,000  Level Chicago Center
Fri 05:02:47 PM 41.6769 -91.7125 82° East 490 564 35,000  Level Chicago Center
Fri 05:03:49 PM 41.6967 -91.5364 81° East 487 560 35,000  Level Chicago Center
Fri 05:04:51 PM 41.7189 -91.3231 82° East 489 563 35,000  Level Chicago Center
Fri 05:05:53 PM 41.7381 -91.1450 82° East 491 565 35,000  Level Chicago Center
Fri 05:06:55 PM 41.7558 -90.9681 82° East 487 560 35,000  Level Chicago Center
Fri 05:07:57 PM 41.7731 -90.7894 83° East 489 563 35,000  Level Chicago Center
Fri 05:08:59 PM 41.7925 -90.5950 82° East 489 563 35,000  Level Chicago Center
Fri 05:10:01 PM 41.8133 -90.3978 82° East 489 563 35,000  Level Chicago Center
Fri 05:11:03 PM 41.8306 -90.2186 83° East 490 564 35,000  Level Chicago Center
Fri 05:12:06 PM 41.8467 -90.0411 83° East 488 562 35,000  Level Chicago Center
Fri 05:13:08 PM 41.8633 -89.8606 83° East 487 560 35,000  Level Chicago Center
Fri 05:14:10 PM 41.8825 -89.6447 83° East 487 560 35,000  Level Chicago Center
Fri 05:15:12 PM 41.8994 -89.4633 83° East 492 566 35,000  Level Chicago Center
Fri 05:16:14 PM 41.9153 -89.2831 83° East 490 564 35,000  Level Chicago Center
Fri 05:17:16 PM 41.9306 -89.1042 83° East 485 558 35,000  Level Chicago Center
Fri 05:18:18 PM 41.9461 -88.9236 83° East 488 562 35,000  Level Chicago Center
Fri 05:19:20 PM 41.9611 -88.7419 84° East 490 564 35,000  Level Chicago Center
Fri 05:20:22 PM 41.9778 -88.5239 84° East 489 563 35,000  Level Chicago Center
Fri 05:21:24 PM 41.9922 -88.3442 84° East 488 562 35,000  Level Chicago Center
Fri 05:22:26 PM 42.0058 -88.1614 84° East 489 563 35,000  Level Chicago Center
Fri 05:23:29 PM 42.0192 -87.9811 84° East 484 557 35,000  Level Chicago Center
Fri 05:24:31 PM 42.0331 -87.7981 84° East 489 563 35,000  Level Chicago Center
Fri 05:25:33 PM 42.0464 -87.6161 84° East 489 563 35,000  Level Chicago Center
Fri 05:26:35 PM 42.0631 -87.3939 84° East 495 570 35,000  Level Chicago Center
Fri 05:27:37 PM 42.0753 -87.2086 85° East 498 573 35,000  Level Chicago Center
Fri 05:28:39 PM 42.0883 -87.0236 85° East 497 572 35,000  Level Chicago Center
Fri 05:29:41 PM 42.0892 -86.8372 90° East 495 570 35,000  Level Chicago Center
Fri 05:30:43 PM 42.0900 -86.6414 90° East 496 571 35,000  Level Chicago Center
Fri 05:31:45 PM 42.0919 -86.4553 89° East 496 571 35,000  Level Chicago Center
Fri 05:32:47 PM 42.0906 -86.2686 91° East 498 573 35,000 -48 Level Chicago Center
Fri 05:33:49 PM 42.0892 -86.0817 91° East 498 573 34,900 -532 Descending Chicago Center
Fri 05:34:51 PM 42.0878 -85.8747 90° East 495 570 33,900 -816 Descending Chicago Center
Fri 05:35:54 PM 42.0878 -85.6939 90° East 490 564 33,200 -432 Descending Chicago Center
Fri 05:36:56 PM 42.0856 -85.5122 91° East 490 564 33,000 -97 Descending Chicago Center
Fri 05:37:58 PM 42.0839 -85.3289 91° East 491 565 33,000  Level Chicago Center
Fri 05:38:46 PM 42.0839 -85.1497 90° East 496 571 33,000  Level Cleveland Center
Fri 05:39:46 PM 42.0828 -84.9650 90° East 496 571 33,000  Level Cleveland Center
Fri 05:40:46 PM 42.0792 -84.7828 91° East 496 571 33,000  Level Cleveland Center
Fri 05:41:46 PM 42.0753 -84.5978 92° East 496 571 33,000  Level Cleveland Center
Fri 05:42:46 PM 42.0711 -84.4100 92° East 496 571 33,000 -500 Level Cleveland Center
Fri 05:43:46 PM 42.0642 -84.2447 93° East 496 571 32,000 -1,450 Descending Cleveland Center
Fri 05:44:46 PM 42.0614 -84.0597 91° East 496 571 30,100 -2,050 Descending Cleveland Center
Fri 05:45:46 PM 42.0564 -83.8778 92° East 496 571 27,900 -2,250 Descending Cleveland Center
Fri 05:46:46 PM 42.0514 -83.6900 92° East 496 571 25,600 -2,150 Descending Cleveland Center
Fri 05:47:46 PM 42.0464 -83.4828 92° East 501 577 23,600 -1,750 Descending Cleveland Center
Fri 05:48:46 PM 42.0297 -83.3058 97° East 484 557 22,100 -1,400 Descending Cleveland Center
Fri 05:49:46 PM 42.0150 -83.1375 97° East 469 540 20,800 -1,200 Descending Cleveland Center
Fri 05:50:46 PM 41.9997 -82.9694 97° East 456 525 19,700 -1,200 Descending Cleveland Center
Fri 05:51:46 PM 41.9822 -82.8067 98° East 445 512 18,400 -1,333 Descending Cleveland Center
Fri 05:52:07 PM 41.9769 -82.7589 98° East 435 501 17,900 -1,900 Descending Cleveland Center
Fri 05:52:46 PM 41.9683 -82.6525 96° East 439 505 16,500 -2,182 Descending Cleveland Center
Fri 05:53:02 PM 41.9628 -82.6133 101° East 423 487 15,900 -2,300 Descending Cleveland Center
Fri 05:53:46 PM 41.9419 -82.5008 104° East 426 490 14,200 -2,200 Descending Cleveland Center
Fri 05:54:02 PM 41.9300 -82.4672 116° Southeast 412 474 13,700 -2,000 Descending Cleveland Center
Fri 05:54:46 PM 41.8981 -82.3631 112° Southeast 408 470 12,200 -2,149 Descending Cleveland Center
Fri 05:55:09 PM 41.8783 -82.3067 115° Southeast 400 460 11,300 -2,000 Descending Cleveland Center
Fri 05:55:46 PM 41.8542 -82.2333 114° Southeast 398 458 10,200 -1,279 Descending Cleveland Center
Fri 05:56:10 PM 41.8192 -82.2019 146° Southeast 357 411 10,000 -200 Descending Cleveland Center
Fri 05:56:46 PM 41.7739 -82.1619 147° Southeast 342 394 10,000  Level Cleveland Center
Fri 05:57:11 PM 41.7411 -82.1358 149° Southeast 319 367 10,000 -300 Level Cleveland Center
Fri 05:57:46 PM 41.7039 -82.0961 141° Southeast 335 386 9,700 -689 Descending Cleveland Center
Fri 05:58:12 PM 41.6794 -82.0678 139° Southeast 283 326 9,300 -700 Descending Cleveland Center
Fri 05:58:46 PM 41.6508 -82.0197 129° Southeast 298 343 9,000 -333 Descending Cleveland Center
Fri 05:59:06 PM 41.6408 -81.9864 112° Southeast 299 344 9,000 -300 Level Cleveland Center
Fri 05:59:46 PM 41.6228 -81.9164 109° East 287 330 8,700 -885 Descending Cleveland Center
Fri 06:00:07 PM 41.6128 -81.8828 112° Southeast 292 336 8,100 -1,500 Descending Cleveland Center
Fri 06:00:46 PM 41.5947 -81.8158 110° East 287 330 7,200 -985 Descending Cleveland Center
Fri 06:01:14 PM 41.5869 -81.7769 105° East 268 308 7,000 -700 Descending Cleveland Center
Fri 06:01:46 PM 41.5917 -81.7269 83° East 257 296 6,500 -787 Descending Cleveland Center
Fri 06:02:15 PM 41.5939 -81.6881 86° East 234 269 6,200 -867 Descending Cleveland Center
Fri 06:03:16 PM 41.5506 -81.6458 144° Southeast 190 219 5,200 -1,190 Descending Cleveland Center
Fri 06:04:16 PM 41.5147 -81.6950 226° Southwest 165 190 3,800 -1,022 Descending Cleveland Center
Fri 06:06:18 PM 41.4575 -81.7828 229° Southwest 146 168 2,100 -754 Descending Cleveland Center
Fri 06:07:19 PM 41.4342 -81.8156 226° Southwest 129 148 1,500 -590 Descending Cleveland Center
Fri 06:09:00 PM 41.4000 -81.8500 153° Southeast  Level FlightAware Approximate

Login

Don't have an account? Register now (free) for customized features, flight alerts, and more!